Flight Track Log - Related Links

Times and Time Zones

All times are in EDT time to prevent confusion due to time zone crossing. See the RPA3133 flight status page for this flight to view local times or setup timezone preferences in your user account.

Time Position Orientation Groundspeed Altitude Reporting Facility
EDT Latitude Longitude Course Direction KTS MPH feet Rate Location/Type
Fri 02:07:10 PM 40.0033 -82.9228 170° South 179 206 1,700  Level Indianapolis Center
Fri 02:11:16 PM 39.8386 -82.8864 178° South 320 368 9,900 2,000 Climbing Indianapolis Center
Fri 02:12:16 PM 39.7531 -82.8819 182° South 315 362 11,900 2,150 Climbing Indianapolis Center
Fri 02:13:16 PM 39.6717 -82.8853 182° South 315 362 14,200 1,500 Climbing Indianapolis Center
Fri 02:14:16 PM 39.5781 -82.8889 175° South 327 376 14,900 750 Climbing Indianapolis Center
Fri 02:15:16 PM 39.4861 -82.8792 168° South 332 382 15,700 1,400 Climbing Indianapolis Center
Fri 02:16:16 PM 39.3900 -82.8531 170° South 349 402 17,700 1,650 Climbing Indianapolis Center
Fri 02:17:16 PM 39.2900 -82.8300 168° South 360 414 19,000 700 Climbing Indianapolis Center
Fri 02:18:16 PM 39.1833 -82.8017 170° South 360 414 19,100 500 Climbing Indianapolis Center
Fri 02:19:16 PM 39.0956 -82.7811 167° South 360 414 20,000 1,050 Climbing Indianapolis Center
Fri 02:20:16 PM 38.9975 -82.7528 171° South 360 414 21,200 1,450 Climbing Indianapolis Center
Fri 02:21:16 PM 38.8908 -82.7300 168° South 372 428 22,900 950 Climbing Indianapolis Center
Fri 02:22:16 PM 38.7864 -82.7019 169° South 383 441 23,100 850 Climbing Indianapolis Center
Fri 02:23:16 PM 38.6800 -82.6764 169° South 388 447 24,600 1,650 Climbing Indianapolis Center
Fri 02:24:16 PM 38.5692 -82.6486 169° South 396 456 26,400 1,500 Climbing Indianapolis Center
Fri 02:25:16 PM 38.4481 -82.6183 170° South 402 463 27,600 1,300 Climbing Indianapolis Center
Fri 02:26:16 PM 38.3308 -82.5908 168° South 412 474 29,000 700 Climbing Indianapolis Center
Fri 02:27:16 PM 38.2139 -82.5606 169° South 422 486 29,000  Level Indianapolis Center
Fri 02:28:16 PM 38.1011 -82.5331 169° South 428 493 29,000  Level Indianapolis Center
Fri 02:29:16 PM 37.9839 -82.5031 169° South 428 493 29,000  Level Indianapolis Center
Fri 02:30:16 PM 37.8689 -82.4758 169° South 428 493 29,000  Level Indianapolis Center
Fri 02:31:16 PM 37.7539 -82.4486 168° South 428 493 29,000  Level Indianapolis Center
Fri 02:32:16 PM 37.6389 -82.4186 169° South 428 493 29,000  Level Indianapolis Center
Fri 02:33:16 PM 37.5261 -82.3917 169° South 421 484 29,000  Level Indianapolis Center
Fri 02:34:16 PM 37.4089 -82.3622 169° South 421 484 29,000  Level Indianapolis Center
Fri 02:35:16 PM 37.2961 -82.3353 169° South 427 491 29,000  Level Indianapolis Center
Fri 02:36:16 PM 37.1789 -82.3058 170° South 427 491 29,000  Level Indianapolis Center
Fri 02:37:29 PM 37.0381 -82.2733 169° South 434 499 29,000  Level Atlanta Center
Fri 02:38:29 PM 36.9211 -82.2447 169° South 427 491 29,000 -150 Level Atlanta Center
Fri 02:39:29 PM 36.8058 -82.2161 175° South 427 491 28,700 -773 Descending Atlanta Center
Fri 02:40:41 PM 36.6911 -82.2033 185° South 427 491 27,300 -1,409 Descending Atlanta Center
Fri 02:41:41 PM 36.5619 -82.2167 186° South 410 472 25,600 -1,500 Descending Atlanta Center
Fri 02:42:41 PM 36.4578 -82.2292 185° South 393 452 24,300 -800 Descending Atlanta Center
Fri 02:43:41 PM 36.3539 -82.2394 186° South 382 440 24,000 -150 Descending Atlanta Center
Fri 02:44:41 PM 36.2497 -82.2519 186° South 382 440 24,000  Level Atlanta Center
Fri 02:45:41 PM 36.1456 -82.2644 186° South 387 445 24,000  Level Atlanta Center
Fri 02:46:41 PM 36.0414 -82.2772 168° South 382 440 24,000 -300 Level Atlanta Center
Fri 02:47:41 PM 35.9389 -82.2511 160° South 382 440 23,400 -744 Descending Atlanta Center
Fri 02:48:42 PM 35.8528 -82.2119 162° South 371 427 22,500 -1,150 Descending Atlanta Center
Fri 02:49:41 PM 35.7542 -82.1733 155° Southeast 371 427 21,100 -1,462 Descending Atlanta Center
Fri 02:50:41 PM 35.6658 -82.1217 107° East 366 421 19,600 -1,750 Descending Atlanta Center
Fri 02:51:41 PM 35.6344 -81.9972 93° East 320 368 17,600 -2,118 Descending Atlanta Center
Fri 02:52:23 PM 35.6311 -81.9156 95° East 349 402 16,000 -2,156 Descending Atlanta Center
Fri 02:53:49 PM 35.6197 -81.7472 97° East 340 391 13,000 -2,000 Descending Atlanta Center
Fri 02:54:50 PM 35.6092 -81.6350 110° East 327 376 11,100 -1,062 Descending Atlanta Center
Fri 02:55:42 PM 35.5847 -81.5542 115° Southeast 311 358 11,000 -541 Descending Atlanta Center
Fri 02:56:41 PM 35.5494 -81.4608 104° East 299 344 10,100 -1,361 Descending Atlanta Center
Fri 02:57:41 PM 35.5306 -81.3644 115° Southeast 289 333 8,300 -1,550 Descending Atlanta Center
Fri 02:58:41 PM 35.4972 -81.2761 122° Southeast 282 325 7,000 -950 Descending Atlanta Center
Fri 02:59:41 PM 35.4558 -81.1958 125° Southeast 282 325 6,400 -700 Descending Atlanta Center
Fri 03:00:41 PM 35.4189 -81.1308 126° Southeast 261 300 5,600 -850 Descending Atlanta Center
Fri 03:01:41 PM 35.3797 -81.0636 129° Southeast 249 287 4,700 -950 Descending Atlanta Center
Fri 03:02:22 PM 35.3564 -81.0286 136° Southeast 222 255 4,000 -1,111 Descending FAA TRACON SMA TRACON (SMA)
Fri 03:03:02 PM 35.3314 -80.9986 151° Southeast 207 238 3,200 -1,425 Descending FAA TRACON SMA TRACON (SMA)
Fri 03:03:42 PM 35.2964 -80.9750 174° South 180 207 2,100 -1,200 Descending FAA TRACON SMA TRACON (SMA)
Fri 03:04:22 PM 35.2689 -80.9717 174° South 147 169 1,600 -750 Descending FAA TRACON SMA TRACON (SMA)

Login

Don't have an account? Register now (free) for customized features, flight alerts, and more!